createdAt,value
2023-02-28T00:00:42.992Z,97031.28
2023-02-28T00:03:11.827Z,97022.47
2023-02-28T00:05:43.847Z,97011.44
2023-02-28T00:08:17.483Z,96998.84
2023-02-28T00:10:45.326Z,97032.03
2023-02-28T00:13:15.264Z,97023.53
2023-02-28T00:15:47.329Z,97025.13
2023-02-28T00:18:16.523Z,97030.22
2023-02-28T00:20:44.681Z,97020.38
2023-02-28T00:23:12.637Z,97025.41
2023-02-28T00:25:45.353Z,97032.25
2023-02-28T00:28:14.593Z,97027.94
2023-02-28T00:30:42.500Z,97026.50
2023-02-28T00:33:10.502Z,97025.88
2023-02-28T00:35:43.597Z,97032.81
2023-02-28T00:38:17.154Z,97011.97
2023-02-28T00:40:48.932Z,97025.41
2023-02-28T00:43:16.796Z,97032.31
2023-02-28T00:45:47.739Z,97024.72
2023-02-28T00:48:17.844Z,97025.88
2023-02-28T00:50:50.680Z,96991.97
2023-02-28T00:53:20.773Z,97022.84
2023-02-28T00:55:51.051Z,96994.63
2023-02-28T00:58:21.936Z,97015.19
2023-02-28T01:00:50.220Z,97024.22
2023-02-28T01:03:22.121Z,97026.25
2023-02-28T01:05:51.711Z,97024.31
2023-02-28T01:08:22.317Z,96974.75
2023-02-28T01:10:55.405Z,97031.13
2023-02-28T01:13:26.811Z,97032.44
2023-02-28T01:16:01.264Z,96992.06
2023-02-28T01:18:29.522Z,97025.44
2023-02-28T01:20:57.519Z,97023.22
2023-02-28T01:23:29.432Z,97016.75
2023-02-28T01:25:58.611Z,97022.69
2023-02-28T01:28:46.799Z,97018.66
2023-02-28T01:31:19.374Z,97024.56
2023-02-28T01:33:47.802Z,96969.63
2023-02-28T01:36:37.697Z,97020.28
2023-02-28T01:39:06.580Z,96929.72
2023-02-28T01:41:40.498Z,97030.97
2023-02-28T01:44:25.059Z,97008.69
2023-02-28T01:46:53.257Z,97036.47
2023-02-28T01:49:24.247Z,97011.84
2023-02-28T01:51:56.020Z,97022.53
2023-02-28T01:54:27.215Z,97033.00
2023-02-28T01:56:59.413Z,97027.25
2023-02-28T01:59:31.707Z,97002.53
2023-02-28T02:01:59.611Z,97013.78
2023-02-28T02:04:34.658Z,97012.44
2023-02-28T02:07:06.428Z,97011.00
2023-02-28T02:09:34.328Z,97007.94
2023-02-28T02:12:07.937Z,97003.50
2023-02-28T02:14:52.849Z,97006.16
2023-02-28T02:17:28.544Z,96985.72
2023-02-28T02:20:35.940Z,97011.56
2023-02-28T02:23:32.603Z,97004.34
2023-02-28T02:26:10.654Z,96998.03
2023-02-28T02:29:03.656Z,96997.22
2023-02-28T02:31:56.350Z,97061.69
2023-02-28T02:34:46.706Z,96981.59
2023-02-28T02:37:22.332Z,97001.28
2023-02-28T02:39:53.860Z,97001.13
2023-02-28T02:42:28.003Z,96998.44
2023-02-28T02:45:00.970Z,97001.69
2023-02-28T02:47:31.514Z,97003.09
2023-02-28T02:50:05.681Z,97005.88
2023-02-28T02:52:40.041Z,97010.09
2023-02-28T02:55:14.507Z,97011.19
2023-02-28T02:57:53.798Z,97004.91
2023-02-28T03:00:25.266Z,97001.78
2023-02-28T03:02:54.616Z,96961.63
2023-02-28T03:05:27.489Z,97002.28
2023-02-28T03:07:59.666Z,96967.81
2023-02-28T03:10:31.004Z,97008.97
2023-02-28T03:13:24.527Z,97010.13
2023-02-28T03:16:01.040Z,97012.78
2023-02-28T03:18:37.618Z,96921.03
2023-02-28T03:21:19.201Z,97015.47
2023-02-28T03:23:54.512Z,97010.72
2023-02-28T03:26:28.878Z,97008.16
2023-02-28T03:29:05.096Z,97009.22
2023-02-28T03:31:40.020Z,96968.38
2023-02-28T03:34:13.467Z,97002.31
2023-02-28T03:36:46.789Z,97008.78
2023-02-28T03:39:18.782Z,96948.56
2023-02-28T03:41:51.000Z,96996.94
2023-02-28T03:44:23.532Z,96985.81
2023-02-28T03:46:57.768Z,97004.28
2023-02-28T03:49:38.704Z,97003.13
2023-02-28T03:52:09.711Z,96992.59
2023-02-28T03:54:42.256Z,97003.38
2023-02-28T03:57:14.774Z,96999.59
2023-02-28T03:59:45.774Z,97007.53
2023-02-28T04:02:15.065Z,97008.22
2023-02-28T04:04:49.744Z,97011.97
2023-02-28T04:07:19.464Z,97011.00
2023-02-28T04:09:51.249Z,96991.66
2023-02-28T04:12:19.007Z,97008.84
2023-02-28T04:14:48.732Z,97014.59
2023-02-28T04:17:16.760Z,96995.88
2023-02-28T04:19:45.488Z,97004.75
2023-02-28T04:22:18.220Z,96994.97
2023-02-28T04:24:47.609Z,97009.56
2023-02-28T04:27:19.413Z,97008.16
2023-02-28T04:29:49.187Z,97007.78
2023-02-28T04:32:17.071Z,97007.41
2023-02-28T04:34:46.380Z,97003.94
2023-02-28T04:37:15.035Z,96963.94
2023-02-28T04:39:49.023Z,97005.00
2023-02-28T04:42:18.581Z,97007.94
2023-02-28T04:44:46.598Z,96997.75
2023-02-28T04:47:15.725Z,97044.00
2023-02-28T04:49:46.211Z,96999.28
2023-02-28T04:52:14.294Z,96997.22
2023-02-28T04:54:42.153Z,97012.06
2023-02-28T04:57:11.907Z,97006.09
2023-02-28T04:59:41.429Z,97011.25
2023-02-28T05:02:09.652Z,97009.53
2023-02-28T05:04:40.818Z,97002.66
2023-02-28T05:07:09.264Z,97002.28
2023-02-28T05:09:40.405Z,97009.84
2023-02-28T05:12:11.807Z,97008.78
2023-02-28T05:14:43.166Z,97008.41
2023-02-28T05:17:22.092Z,96939.41
2023-02-28T05:19:52.660Z,96994.44
2023-02-28T05:22:20.802Z,97007.78
2023-02-28T05:24:50.334Z,97011.38
2023-02-28T05:27:19.624Z,96973.06
2023-02-28T05:29:49.701Z,97013.56
2023-02-28T05:32:18.562Z,97019.78
2023-02-28T05:34:46.465Z,97017.72
2023-02-28T05:37:16.589Z,97015.56
2023-02-28T05:39:44.784Z,96983.22
2023-02-28T05:42:12.593Z,97021.41
2023-02-28T05:44:43.107Z,97033.13
2023-02-28T05:47:13.730Z,97015.13
2023-02-28T05:49:41.907Z,97021.69
2023-02-28T05:52:10.325Z,97015.47
2023-02-28T05:54:38.515Z,97016.94
2023-02-28T05:57:15.549Z,97011.81
2023-02-28T05:59:55.652Z,96983.84
2023-02-28T06:02:25.309Z,97028.31
2023-02-28T06:04:56.980Z,97025.25
2023-02-28T06:07:24.997Z,97013.16
2023-02-28T06:09:57.957Z,97025.34
2023-02-28T06:12:25.794Z,97022.00
2023-02-28T06:14:53.789Z,97021.69
2023-02-28T06:17:22.629Z,97028.00
2023-02-28T06:19:52.107Z,96995.59
2023-02-28T06:22:19.959Z,97028.34
2023-02-28T06:24:48.294Z,97028.34
2023-02-28T06:27:21.602Z,97015.28
2023-02-28T06:29:49.540Z,97033.47
2023-02-28T06:32:17.662Z,97005.22
2023-02-28T06:34:45.707Z,97028.22
2023-02-28T06:37:15.185Z,97015.69
2023-02-28T06:39:43.053Z,97051.28
2023-02-28T06:42:11.056Z,97047.88
2023-02-28T06:44:39.103Z,97054.25
2023-02-28T06:47:10.602Z,97056.50
2023-02-28T06:49:40.135Z,97053.00
2023-02-28T06:52:30.741Z,97056.53
2023-02-28T06:55:02.092Z,97049.97
2023-02-28T06:57:31.936Z,97064.78
2023-02-28T07:00:01.068Z,97044.44
2023-02-28T07:02:35.658Z,97044.91
2023-02-28T07:05:06.814Z,97059.31
2023-02-28T07:07:37.416Z,97063.72
2023-02-28T07:10:07.140Z,97069.22
2023-02-28T07:12:35.099Z,97061.47
2023-02-28T07:15:03.081Z,97056.88
2023-02-28T07:17:31.104Z,97063.44
2023-02-28T07:19:59.501Z,97062.09
2023-02-28T07:22:27.552Z,97067.47
2023-02-28T07:24:57.065Z,97066.41
2023-02-28T07:27:26.624Z,97068.56
2023-02-28T07:29:55.787Z,97073.22
2023-02-28T07:32:23.954Z,97040.22
2023-02-28T07:34:51.934Z,97068.38
2023-02-28T07:37:20.566Z,97055.63
2023-02-28T07:39:50.924Z,97066.38
2023-02-28T07:45:13.299Z,97064.56
2023-02-28T07:47:41.575Z,97064.91
2023-02-28T07:50:11.180Z,97033.31
2023-02-28T07:52:40.863Z,97064.53
2023-02-28T07:55:10.270Z,97069.53
2023-02-28T07:57:40.205Z,97067.66
2023-02-28T08:00:10.602Z,96770.84
2023-02-28T08:02:38.740Z,97052.97
2023-02-28T08:05:07.998Z,97072.94
2023-02-28T08:07:36.069Z,96754.78
2023-02-28T08:10:04.061Z,97074.56
2023-02-28T08:12:32.078Z,97077.25
2023-02-28T08:15:02.444Z,97070.72
2023-02-28T08:17:30.416Z,97057.34
2023-02-28T08:19:58.278Z,97080.66
2023-02-28T08:22:27.454Z,97081.94
2023-02-28T08:24:55.312Z,97066.78
2023-02-28T08:27:26.246Z,96931.44
2023-02-28T08:29:54.252Z,97074.09
2023-02-28T08:32:29.713Z,96818.34
2023-02-28T08:35:00.197Z,97083.59
2023-02-28T08:37:28.549Z,97087.72
2023-02-28T08:39:56.757Z,97090.69
2023-02-28T08:42:25.223Z,97089.91
2023-02-28T08:44:53.056Z,97097.84
2023-02-28T08:47:22.702Z,97094.13
2023-02-28T08:49:52.344Z,97088.56
2023-02-28T08:52:31.288Z,97092.94
2023-02-28T08:54:59.184Z,97094.91
2023-02-28T08:57:28.583Z,97085.16
2023-02-28T08:59:56.646Z,97101.00
2023-02-28T09:02:24.749Z,97096.16
2023-02-28T09:04:54.293Z,97109.00
2023-02-28T09:07:22.209Z,97107.56
2023-02-28T09:10:05.895Z,97105.78
2023-02-28T09:12:37.583Z,97101.00
2023-02-28T09:15:12.215Z,97051.00
2023-02-28T09:17:40.224Z,97111.94
2023-02-28T09:20:16.725Z,97106.56
2023-02-28T09:22:47.818Z,96902.00
2023-02-28T09:25:16.194Z,97089.31
2023-02-28T09:27:44.177Z,97078.78
2023-02-28T09:30:13.953Z,97100.22
2023-02-28T09:32:42.011Z,97103.09
2023-02-28T09:35:17.091Z,97103.47
2023-02-28T09:37:44.928Z,97101.44
2023-02-28T09:40:18.861Z,97120.09
2023-02-28T09:42:48.565Z,97060.41
2023-02-28T09:45:25.167Z,97106.97
2023-02-28T09:47:57.000Z,97106.06
2023-02-28T09:50:33.978Z,97107.56
2023-02-28T09:53:05.815Z,97110.59
2023-02-28T09:55:46.283Z,97111.88
2023-02-28T09:58:25.647Z,97096.66
2023-02-28T10:01:00.293Z,97111.03
2023-02-28T10:03:33.698Z,97113.50
2023-02-28T10:06:13.372Z,97103.75
2023-02-28T10:08:46.342Z,97108.97
2023-02-28T10:11:17.762Z,97104.31
2023-02-28T10:13:53.897Z,97101.16
2023-02-28T10:16:30.202Z,97040.94
2023-02-28T10:19:04.560Z,97075.16
2023-02-28T10:21:38.266Z,97115.47
2023-02-28T10:24:17.058Z,97096.41
2023-02-28T10:26:46.642Z,97092.22
2023-02-28T10:29:14.796Z,97065.41
2023-02-28T10:31:46.018Z,97125.38
2023-02-28T10:34:15.224Z,97116.13
2023-02-28T10:36:47.544Z,97120.75
2023-02-28T10:39:40.197Z,97121.09
2023-02-28T10:42:21.518Z,97046.81
2023-02-28T10:44:50.112Z,97101.63
2023-02-28T10:47:19.704Z,97125.72
2023-02-28T10:49:53.457Z,97111.84
2023-02-28T10:52:39.738Z,97112.91
2023-02-28T10:55:22.938Z,97113.69
2023-02-28T10:57:52.638Z,97109.72
2023-02-28T11:00:26.809Z,97110.78
2023-02-28T11:03:00.929Z,97067.59
2023-02-28T11:05:34.242Z,97111.59
2023-02-28T11:08:09.124Z,97111.00
2023-02-28T11:10:40.766Z,97106.88
2023-02-28T11:13:11.790Z,97103.63
2023-02-28T11:15:40.512Z,97123.06
2023-02-28T11:18:23.374Z,97090.22
2023-02-28T11:20:52.243Z,97097.94
2023-02-28T11:23:22.798Z,97095.47
2023-02-28T11:25:54.931Z,97096.69
2023-02-28T11:28:29.331Z,97090.09
2023-02-28T11:31:07.457Z,97079.13
2023-02-28T11:33:43.419Z,97084.97
2023-02-28T11:36:15.381Z,97103.59
2023-02-28T11:38:46.580Z,97079.16
2023-02-28T11:41:24.692Z,97037.75
2023-02-28T11:44:04.356Z,97087.06
2023-02-28T11:46:36.973Z,97085.88
2023-02-28T11:49:14.991Z,97074.63
2023-02-28T11:51:50.017Z,97072.56
2023-02-28T11:54:36.654Z,97086.63
2023-02-28T11:57:20.315Z,97060.09
2023-02-28T12:00:00.921Z,96822.50
2023-02-28T12:02:35.801Z,97045.47
2023-02-28T12:05:14.542Z,97070.38
2023-02-28T12:07:53.657Z,97058.13
2023-02-28T12:10:26.297Z,97065.91
2023-02-28T12:13:06.050Z,97069.41
2023-02-28T12:16:00.882Z,97065.31
2023-02-28T12:21:17.734Z,96944.34
2023-02-28T12:24:13.219Z,97033.59
2023-02-28T12:26:44.118Z,97051.75
2023-02-28T12:29:17.514Z,97064.09
2023-02-28T12:31:53.177Z,97033.63
2023-02-28T12:34:24.132Z,97043.19
2023-02-28T12:36:57.665Z,97040.03
2023-02-28T12:39:29.215Z,97025.16
2023-02-28T12:42:03.689Z,97030.41
2023-02-28T12:44:35.336Z,97036.19
2023-02-28T12:47:06.429Z,97032.53
2023-02-28T12:49:38.586Z,97010.41
2023-02-28T12:52:06.912Z,97022.72
2023-02-28T12:54:40.742Z,97029.34
2023-02-28T12:57:17.206Z,97026.41
2023-02-28T12:59:54.199Z,97023.22
2023-02-28T13:03:00.698Z,97026.00
2023-02-28T13:05:55.324Z,97009.50
2023-02-28T13:08:40.337Z,97019.06
2023-02-28T13:11:26.897Z,96981.16
2023-02-28T13:14:01.694Z,97008.19
2023-02-28T13:16:35.205Z,97013.22
2023-02-28T13:19:18.796Z,97015.09
2023-02-28T13:21:50.831Z,97010.34
2023-02-28T13:24:46.962Z,97010.31
2023-02-28T13:27:37.813Z,96995.06
2023-02-28T13:30:39.066Z,97010.69
2023-02-28T13:33:33.623Z,96995.56
2023-02-28T13:36:25.080Z,97023.38
2023-02-28T13:39:00.865Z,97006.38
2023-02-28T13:41:50.692Z,97000.97
2023-02-28T13:44:24.224Z,97003.44
2023-02-28T13:47:26.773Z,96997.06
2023-02-28T13:49:56.422Z,97016.94
2023-02-28T13:52:28.649Z,97009.56
2023-02-28T13:55:17.102Z,97012.34
2023-02-28T13:57:56.138Z,97015.25
2023-02-28T14:00:38.303Z,96988.69
2023-02-28T14:03:36.779Z,97012.00
2023-02-28T14:06:18.929Z,97011.41
2023-02-28T14:08:56.950Z,97015.91
2023-02-28T14:11:39.401Z,97017.47
2023-02-28T14:14:08.835Z,96991.00
2023-02-28T14:16:48.292Z,97004.56
2023-02-28T14:19:27.142Z,96975.47
2023-02-28T14:22:11.209Z,97006.66
2023-02-28T14:24:53.217Z,97008.19
2023-02-28T14:27:38.904Z,97002.66
2023-02-28T14:30:44.090Z,96994.25
2023-02-28T14:33:25.028Z,96972.16
2023-02-28T14:36:12.948Z,97002.56
2023-02-28T14:38:47.941Z,96997.41
2023-02-28T14:41:21.282Z,96996.47
2023-02-28T14:43:57.742Z,96999.38
2023-02-28T14:46:29.173Z,97000.13
2023-02-28T14:48:58.036Z,96886.41
2023-02-28T14:51:27.611Z,97003.28
2023-02-28T14:54:02.140Z,97006.22
2023-02-28T14:56:35.210Z,97003.31
2023-02-28T14:59:07.014Z,96993.72
2023-02-28T15:01:34.983Z,97007.22
2023-02-28T15:04:05.194Z,96999.09
2023-02-28T15:06:34.420Z,97019.22
2023-02-28T15:09:30.770Z,97011.53
2023-02-28T15:11:59.023Z,97021.13
2023-02-28T15:14:30.923Z,97019.63
2023-02-28T15:17:02.086Z,97015.41
2023-02-28T15:19:34.708Z,97016.72
2023-02-28T15:22:06.185Z,97016.16
2023-02-28T15:24:41.140Z,97014.09
2023-02-28T15:27:13.407Z,97010.38
2023-02-28T15:29:51.753Z,97016.88
2023-02-28T15:32:28.111Z,97013.25
2023-02-28T15:34:59.065Z,97007.38
2023-02-28T15:37:40.803Z,96969.91
2023-02-28T15:40:16.036Z,97005.22
2023-02-28T15:42:45.679Z,97010.84
2023-02-28T15:45:41.372Z,97010.56
2023-02-28T15:48:18.674Z,97008.69
2023-02-28T15:50:46.979Z,97019.03
2023-02-28T15:53:17.943Z,97019.06
2023-02-28T15:55:47.684Z,97024.38
2023-02-28T15:58:26.133Z,97014.25
2023-02-28T16:01:22.654Z,97021.91
2023-02-28T16:03:55.339Z,97025.13
2023-02-28T16:06:35.518Z,97003.59
2023-02-28T16:09:10.807Z,97023.72
2023-02-28T16:11:46.329Z,97019.94
2023-02-28T16:14:19.807Z,97020.38
2023-02-28T16:17:01.325Z,97026.88
2023-02-28T16:19:33.759Z,97022.97
2023-02-28T16:22:04.676Z,97031.22
2023-02-28T16:24:32.625Z,97022.94
2023-02-28T16:27:02.422Z,97030.59
2023-02-28T16:29:33.179Z,97042.41
2023-02-28T16:32:08.064Z,97036.97
2023-02-28T16:34:43.398Z,97001.09
2023-02-28T16:37:15.065Z,97047.69
2023-02-28T16:39:43.399Z,97052.28
2023-02-28T16:42:18.100Z,97052.28
2023-02-28T16:44:46.326Z,97052.84
2023-02-28T16:47:17.102Z,97038.09
2023-02-28T16:49:45.376Z,97080.38
2023-02-28T16:52:14.164Z,97001.94
2023-02-28T16:54:44.538Z,97074.69
2023-02-28T16:57:19.666Z,97061.94
2023-02-28T16:59:48.031Z,97019.84
2023-02-28T17:02:17.885Z,97067.00
2023-02-28T17:04:48.458Z,97062.06
2023-02-28T17:07:17.983Z,97075.00
2023-02-28T17:09:47.351Z,97017.69
2023-02-28T17:12:17.830Z,97055.66
2023-02-28T17:14:45.712Z,97080.00
2023-02-28T17:17:18.396Z,97019.75
2023-02-28T17:19:49.402Z,97070.78
2023-02-28T17:22:20.401Z,97090.38
2023-02-28T17:24:48.280Z,97093.41
2023-02-28T17:27:21.659Z,97096.63
2023-02-28T17:29:52.636Z,97098.25
2023-02-28T17:32:22.639Z,97109.56
2023-02-28T17:34:50.429Z,97106.78
2023-02-28T17:37:18.397Z,97103.19
2023-02-28T17:39:46.432Z,97106.63
2023-02-28T17:42:15.387Z,97110.44
2023-02-28T17:44:44.600Z,97110.03
2023-02-28T17:47:14.118Z,97119.91
2023-02-28T17:49:42.724Z,97119.91
2023-02-28T17:52:14.023Z,97122.53
2023-02-28T17:54:42.375Z,97121.91
2023-02-28T17:57:15.320Z,97126.56
2023-02-28T17:59:46.036Z,97130.34
2023-02-28T18:02:14.832Z,97132.75
2023-02-28T18:04:42.856Z,97129.75
2023-02-28T18:07:14.451Z,97128.53
2023-02-28T18:09:42.258Z,97087.94
2023-02-28T18:12:10.474Z,97081.47
2023-02-28T18:14:41.212Z,97126.94
2023-02-28T18:17:16.170Z,97135.81
2023-02-28T18:19:44.215Z,97170.44
2023-02-28T18:22:12.132Z,97130.97
2023-02-28T18:24:40.993Z,97127.97
2023-02-28T18:27:08.971Z,97114.88
2023-02-28T18:29:40.862Z,97123.31
2023-02-28T18:32:23.421Z,97127.16
2023-02-28T18:34:51.661Z,97125.72
2023-02-28T18:37:27.629Z,97126.34
2023-02-28T18:39:57.756Z,97121.28
2023-02-28T18:42:39.241Z,97126.94
2023-02-28T18:45:25.882Z,97020.94
2023-02-28T18:47:58.051Z,97159.72
2023-02-28T18:50:26.342Z,97132.78
2023-02-28T18:52:58.347Z,97130.16
2023-02-28T18:55:32.068Z,97126.94
2023-02-28T18:58:00.099Z,97087.91
2023-02-28T19:00:28.144Z,97129.97
2023-02-28T19:02:57.434Z,97123.56
2023-02-28T19:05:34.458Z,97057.94
2023-02-28T19:08:02.649Z,97123.94
2023-02-28T19:10:35.644Z,97125.34
2023-02-28T19:13:07.039Z,97120.72
2023-02-28T19:15:37.136Z,97120.50
2023-02-28T19:18:06.764Z,97140.25
2023-02-28T19:20:37.327Z,97127.75
2023-02-28T19:23:05.300Z,97125.34
2023-02-28T19:25:33.169Z,97123.91
2023-02-28T19:28:01.084Z,97014.28
2023-02-28T19:30:31.385Z,97117.88
2023-02-28T19:33:00.913Z,97144.66
2023-02-28T19:35:33.107Z,97121.72
2023-02-28T19:38:03.298Z,97142.25
2023-02-28T19:40:33.890Z,97054.88
2023-02-28T19:43:03.790Z,97144.25
2023-02-28T19:45:34.178Z,97105.63
2023-02-28T19:48:04.643Z,97124.94
2023-02-28T19:50:37.544Z,97145.28
2023-02-28T19:53:07.319Z,97137.63
2023-02-28T19:55:35.208Z,97107.22
2023-02-28T19:58:03.032Z,97135.41
2023-02-28T20:00:32.747Z,97135.63
2023-02-28T20:03:01.835Z,97141.47
2023-02-28T20:05:29.737Z,97133.41
2023-02-28T20:08:02.082Z,97138.84
2023-02-28T20:10:33.020Z,97135.03
2023-02-28T20:13:03.152Z,97139.84
2023-02-28T20:15:33.484Z,97135.03
2023-02-28T20:18:01.391Z,97134.59
2023-02-28T20:20:29.335Z,97132.59
2023-02-28T20:22:58.691Z,97067.38
2023-02-28T20:25:29.558Z,97126.97
2023-02-28T20:28:02.715Z,97128.97
2023-02-28T20:30:30.621Z,97087.50
2023-02-28T20:32:58.514Z,97117.88
2023-02-28T20:35:28.813Z,97102.59
2023-02-28T20:37:58.015Z,97135.19
2023-02-28T20:40:31.483Z,97128.75
2023-02-28T20:43:02.054Z,97106.44
2023-02-28T20:45:31.936Z,97112.66
2023-02-28T20:47:59.834Z,97120.13
2023-02-28T20:50:30.702Z,97107.84
2023-02-28T20:53:00.444Z,97124.53
2023-02-28T20:55:29.968Z,97117.69
2023-02-28T20:57:58.453Z,97119.06
2023-02-28T21:00:28.618Z,97120.28
2023-02-28T21:03:02.242Z,97132.16
2023-02-28T21:05:36.342Z,97126.28
2023-02-28T21:08:15.844Z,97120.06
2023-02-28T21:10:45.564Z,97135.75
2023-02-28T21:13:13.513Z,97126.44
2023-02-28T21:15:41.464Z,96950.88
2023-02-28T21:18:09.306Z,97111.56
2023-02-28T21:20:37.209Z,97184.59
2023-02-28T21:23:06.855Z,97081.72
2023-02-28T21:25:39.465Z,97140.75
2023-02-28T21:28:07.942Z,97108.13
2023-02-28T21:30:38.794Z,97132.50
2023-02-28T21:33:06.708Z,97123.16
2023-02-28T21:35:36.644Z,97107.66
2023-02-28T21:38:05.890Z,97123.41
2023-02-28T21:40:37.345Z,97123.56
2023-02-28T21:43:05.210Z,97131.88
2023-02-28T21:45:35.264Z,97101.31
2023-02-28T21:48:06.947Z,97025.16
2023-02-28T21:50:38.324Z,97075.69
2023-02-28T21:53:14.201Z,97128.09
2023-02-28T21:55:42.342Z,97123.28
2023-02-28T21:58:14.282Z,97099.09
2023-02-28T22:00:46.001Z,97059.03
2023-02-28T22:03:16.955Z,97125.53
2023-02-28T22:05:50.810Z,97108.28
2023-02-28T22:08:21.397Z,97096.22
2023-02-28T22:10:49.234Z,97048.88
2023-02-28T22:13:24.706Z,97119.19
2023-02-28T22:15:55.099Z,97112.56
2023-02-28T22:18:26.120Z,97113.19
2023-02-28T22:20:55.523Z,97109.56
2023-02-28T22:23:26.490Z,97061.63
2023-02-28T22:25:56.194Z,97120.06
2023-02-28T22:28:28.006Z,97121.69
2023-02-28T22:30:57.273Z,97121.69
2023-02-28T22:33:25.547Z,97118.28
2023-02-28T22:35:53.765Z,97112.88
2023-02-28T22:38:27.387Z,97123.31
2023-02-28T22:40:57.779Z,97117.47
2023-02-28T22:43:25.641Z,97119.66
2023-02-28T22:45:54.538Z,97108.56
2023-02-28T22:48:22.398Z,97118.03
2023-02-28T22:50:50.449Z,97122.03
2023-02-28T22:53:19.935Z,97120.66
2023-02-28T22:55:56.046Z,97114.78
2023-02-28T22:58:26.592Z,97127.72
2023-02-28T23:00:55.741Z,97114.19
2023-02-28T23:03:24.354Z,97115.69
2023-02-28T23:05:52.430Z,97118.09
2023-02-28T23:08:22.497Z,97100.59
2023-02-28T23:10:52.891Z,97115.47
2023-02-28T23:13:21.446Z,97098.38
2023-02-28T23:15:52.392Z,97117.09
2023-02-28T23:18:23.716Z,97057.31
2023-02-28T23:20:51.503Z,97091.16
2023-02-28T23:23:21.939Z,97100.56
2023-02-28T23:25:52.308Z,97100.56
2023-02-28T23:28:20.330Z,97108.97
2023-02-28T23:30:51.994Z,96970.25
2023-02-28T23:33:19.811Z,97099.28
2023-02-28T23:35:49.825Z,97111.94
2023-02-28T23:38:21.605Z,97117.59
2023-02-28T23:40:50.593Z,97116.84
2023-02-28T23:43:23.717Z,97117.47
2023-02-28T23:45:56.344Z,97065.31
2023-02-28T23:48:25.339Z,97116.47
2023-02-28T23:50:58.245Z,97121.69
2023-02-28T23:53:31.592Z,97069.13
2023-02-28T23:56:06.143Z,97116.03
2023-02-28T23:58:35.487Z,97087.84
